Погода Агиларесна неделю

Сан-Сальвадор, Сальвадор

05 - 11 марта
  • 05марта
    Сегодня
    +23°
    +38°
    Ясно и безоблачно
    ВремяПогодаТемператураВлажностьДавлениеВетер, м/сВероятность осадков
    00:00Ясно и безоблачно+24°C71 %734 мм0.8 м/с2 %
    03:00Ясно и безоблачно+23°C75 %733 мм0.9 м/с2 %
    06:00Ясно и безоблачно+24°C78 %734 мм0.8 м/с2 %
    09:00Ясно и безоблачно+29°C49 %735 мм0.4 м/с2 %
    12:00Ясно и безоблачно+35°C29 %733 мм0.8 м/с2 %
    15:00Ясно и безоблачно+38°C26 %730 мм1.7 м/с2 %
    18:00Ясно и безоблачно+32°C47 %731 мм4.5 м/с2 %
    21:00Ясно и безоблачно+26°C59 %733 мм1.2 м/с2 %
  • 06марта
    Среда
    +23°
    +39°
    Ясно и безоблачно
    ВремяПогодаТемператураВлажностьДавлениеВетер, м/сВероятность осадков
    00:00Ясно и безоблачно+24°C69 %733 мм0.9 м/с2 %
    03:00Ясно и безоблачно+23°C72 %732 мм0.3 м/с2 %
    06:00Ясно и безоблачно+24°C73 %733 мм0.9 м/с2 %
    09:00Ясно и безоблачно+29°C48 %734 мм0.5 м/с2 %
    12:00Практически безоблачно+35°C29 %733 мм1.7 м/с2 %
    15:00Ясно и безоблачно+39°C25 %730 мм1.4 м/с1 %
    18:00Ясно и безоблачно+32°C49 %731 мм3.9 м/с2 %
    21:00Ясно и безоблачно+26°C62 %733 мм1.6 м/с2 %
  • 07марта
    Четверг
    +23°
    +39°
    Практически безоблачно
    ВремяПогодаТемператураВлажностьДавлениеВетер, м/сВероятность осадков
    00:00Ясно и безоблачно+24°C69 %733 мм0.4 м/с2 %
    03:00Ясно и безоблачно+23°C75 %732 мм0.3 м/с2 %
    06:00Ясно и безоблачно+24°C79 %733 мм0.2 м/с2 %
    09:00Ясно и безоблачно+29°C52 %735 мм0.5 м/с2 %
    12:00Ясно и безоблачно+36°C30 %733 мм1.1 м/с3 %
    15:00Практически безоблачно+39°C28 %730 мм3.4 м/с10 %
    18:00Ясно и безоблачно+32°C51 %732 мм3.6 м/с17 %
    21:00Ясно и безоблачно+26°C64 %734 мм1.4 м/с2 %
  • 08марта
    Пятница
    +22°
    +38°
    Небольшая облачность
    ВремяПогодаТемператураВлажностьДавлениеВетер, м/сВероятность осадков
    00:00Ясно и безоблачно+24°C72 %734 мм0.7 м/с2 %
    03:00Ясно и безоблачно+24°C75 %733 мм0.7 м/с2 %
    06:00Ясно и безоблачно+25°C76 %734 мм0.7 м/с2 %
    09:00Ясно и безоблачно+29°C51 %735 мм0.9 м/с2 %
    12:00Практически безоблачно+36°C32 %734 мм1.8 м/с11 %
    15:00Небольшая облачность+38°C32 %731 мм3.8 м/с28 %
    18:00Ясно и безоблачно+33°C53 %732 мм3.8 м/с13 %
    21:00Ясно и безоблачно+26°C70 %734 мм1.6 м/с2 %
  • 09марта
    Суббота
    +23°
    +37°
    Облачно с прояснениями
    ВремяПогодаТемператураВлажностьДавлениеВетер, м/сВероятность осадков
    00:00Ясно и безоблачно+24°C79 %733 мм1.0 м/с2 %
    03:00Ясно и безоблачно+23°C86 %732 мм0.8 м/с2 %
    06:00Ясно и безоблачно+25°C88 %733 мм0.8 м/с6 %
    09:00Практически безоблачно+29°C56 %735 мм1.6 м/с6 %
    12:00Облачно с прояснениями+36°C34 %733 мм1.4 м/с3 %
    15:00Облачно с прояснениями+37°C36 %731 мм3.4 м/с7 %
    18:00Ясно и безоблачно+33°C51 %732 мм3.9 м/с3 %
    21:00Ясно и безоблачно+26°C69 %733 мм1.4 м/с2 %
Мы используем cookies
Соглашаюсь